Dades meteomassalio
Diari Summary for Noviembre 13, 2017 Units:  English    Metric   Both
« Previous Day
Next Day »
Diari Semanal Mensual Anual Personalitzat
  Maxima: Minima: Mijana:
Temperatura: TemperatureC °F 6.1 °F 10.2 °F
Rosada: DewpointC °F -4.7 °F 0.7 °F
Humitat: Humidity % 30 % 53 %
Velocitat del vent: WindSpeedKMH mph 18.5 mph 45.3 mph
Racha vent: WindSpeedGustKMH mph - -
Vent:- - NW
Pressio: PressurehPa in 1014.8 in -
Pluja: 0.0 in    
Historical Graphs
 
 
Tabular Data for Noviembre 13, 2017
Time Temperature Dew Point Pressure Wind Wind Speed Wind Gust Humidity Rainfall Rate (Hourly) solar Conditions
TemperatureC °F DewpointC °F PressurehPa in Calm     Humidity % HourlyPrecipMM in SolarRadiationWatts/m^2 W/m2 Conditions
00:01 13.9 °F 8.3 °F 1016.8 in North 48.1 mph 48.1 mph 69 % 0.0 in 0.0 W/m2 CLR
00:06 13.9 °F 8.3 °F 1016.8 in North 42.6 mph 42.6 mph 69 % 0.0 in 0.0 W/m2 CLR
00:11 13.9 °F 8.3 °F 1016.8 in NNW 55.5 mph 55.5 mph 69 % 0.0 in 0.0 W/m2 CLR
00:16 13.9 °F 8.3 °F 1016.8 in NNW 42.6 mph 42.6 mph 69 % 0.0 in 0.0 W/m2 CLR
00:21 13.9 °F 8.3 °F 1016.8 in NW 57.4 mph 57.4 mph 69 % 0.0 in 0.0 W/m2 CLR
00:26 13.9 °F 8.3 °F 1016.8 in NNW 55.5 mph 55.5 mph 69 % 0.0 in 0.0 W/m2 CLR
00:31 13.9 °F 8.3 °F 1016.8 in NNW 46.3 mph 46.3 mph 69 % 0.0 in 0.0 W/m2 CLR
00:36 13.9 °F 8.3 °F 1016.5 in NW 53.7 mph 53.7 mph 69 % 0.0 in 0.0 W/m2 CLR
00:41 13.9 °F 8.3 °F 1016.5 in NW 42.6 mph 42.6 mph 69 % 0.0 in 0.0 W/m2 CLR
00:46 13.9 °F 8.3 °F 1016.5 in NW 42.6 mph 42.6 mph 69 % 0.0 in 0.0 W/m2 CLR
00:51 13.9 °F 8.5 °F 1016.1 in NW 46.3 mph 46.3 mph 70 % 0.0 in 0.0 W/m2 CLR
00:56 13.9 °F 8.5 °F 1016.1 in NNW 44.4 mph 44.4 mph 70 % 0.0 in 0.0 W/m2 CLR
01:01 13.9 °F 8.5 °F 1016.1 in NNW 51.5 mph 51.5 mph 70 % 0.0 in 0.0 W/m2 CLR
01:06 13.3 °F 7.8 °F 1016.1 in NNW 55.5 mph 55.5 mph 69 % 0.0 in 0.0 W/m2
01:11 13.9 °F 8.3 °F 1016.1 in NW 68.5 mph 68.5 mph 69 % 0.0 in 0.0 W/m2
01:16 13.9 °F 8.3 °F 1016.1 in NNW 57.4 mph 57.4 mph 69 % 0.0 in 0.0 W/m2 CLR
01:21 13.9 °F 8.5 °F 1016.5 in NNW 50.0 mph 50.0 mph 70 % 0.0 in 0.0 W/m2
01:26 13.9 °F 8.5 °F 1016.1 in North 59.2 mph 59.2 mph 70 % 0.0 in 0.0 W/m2
01:27 13.9 °F 8.5 °F 1016.5 in NNW 59.2 mph 59.2 mph 70 % 0.0 in 0.0 W/m2
01:32 13.3 °F 8.0 °F 1016.5 in North 50.0 mph 50.0 mph 70 % 0.0 in 0.0 W/m2 CLR
01:37 13.3 °F 8.0 °F 1016.5 in NNW 61.1 mph 61.1 mph 70 % 0.0 in 0.0 W/m2
01:42 13.3 °F 8.0 °F 1016.5 in NNW 42.6 mph 42.6 mph 70 % 0.0 in 0.0 W/m2 CLR
01:47 13.3 °F 8.0 °F 1016.5 in NNW 37.0 mph 37.0 mph 70 % 0.0 in 0.0 W/m2 CLR
01:52 13.3 °F 8.0 °F 1016.5 in NNW 46.3 mph 46.3 mph 70 % 0.0 in 0.0 W/m2 CLR
01:57 13.3 °F 8.0 °F 1016.5 in NNW 42.6 mph 42.6 mph 70 % 0.0 in 0.0 W/m2 CLR
02:02 13.3 °F 8.0 °F 1016.5 in North 44.4 mph 44.4 mph 70 % 0.0 in 0.0 W/m2 CLR
02:07 13.3 °F 7.8 °F 1016.5 in NNE 55.5 mph 55.5 mph 69 % 0.0 in 0.0 W/m2 CLR
02:12 13.3 °F 7.8 °F 1016.5 in NNW 51.8 mph 51.8 mph 69 % 0.0 in 0.0 W/m2 CLR
02:17 13.3 °F 7.8 °F 1016.5 in NNW 37.0 mph 37.0 mph 69 % 0.0 in 0.0 W/m2 CLR
02:22 12.8 °F 7.0 °F 1016.5 in NNW 38.9 mph 38.9 mph 68 % 0.0 in 0.0 W/m2 CLR
02:27 12.8 °F 6.8 °F 1016.5 in North 56.3 mph 56.3 mph 67 % 0.0 in 0.0 W/m2 CLR
02:32 12.8 °F 6.6 °F 1016.5 in North 55.5 mph 55.5 mph 66 % 0.0 in 0.0 W/m2 CLR
02:37 12.8 °F 6.3 °F 1016.8 in NNW 56.3 mph 56.3 mph 65 % 0.0 in 0.0 W/m2 CLR
02:42 12.8 °F 6.6 °F 1016.5 in NNW 38.6 mph 38.6 mph 66 % 0.0 in 0.0 W/m2 CLR
02:47 12.8 °F 6.6 °F 1016.1 in NNW 50.0 mph 50.0 mph 66 % 0.0 in 0.0 W/m2 CLR
02:52 12.2 °F 5.8 °F 1016.1 in North 55.5 mph 55.5 mph 65 % 0.0 in 0.0 W/m2 CLR
02:57 12.2 °F 5.6 °F 1015.8 in North 42.6 mph 42.6 mph 64 % 0.0 in 0.0 W/m2 CLR
03:02 12.2 °F 5.4 °F 1015.8 in NNW 46.3 mph 46.3 mph 63 % 0.0 in 0.0 W/m2
03:07 12.2 °F 4.9 °F 1015.8 in North 64.8 mph 64.8 mph 61 % 0.0 in 0.0 W/m2 CLR
03:12 11.7 °F 4.2 °F 1015.5 in NNW 44.4 mph 44.4 mph 60 % 0.0 in 0.0 W/m2 CLR
03:17 11.7 °F 3.9 °F 1015.1 in NW 61.1 mph 61.1 mph 59 % 0.0 in 0.0 W/m2
03:22 11.7 °F 3.9 °F 1015.5 in North 79.6 mph 79.6 mph 59 % 0.0 in 0.0 W/m2
03:27 11.7 °F 3.9 °F 1015.8 in North 68.5 mph 68.5 mph 59 % 0.0 in 0.0 W/m2
03:32 11.7 °F 3.9 °F 1015.8 in North 57.4 mph 57.4 mph 59 % 0.0 in 0.0 W/m2
03:37 11.7 °F 3.9 °F 1015.8 in NNW 66.6 mph 66.6 mph 59 % 0.0 in 0.0 W/m2
03:42 11.7 °F 3.7 °F 1016.1 in NNE 79.6 mph 79.6 mph 58 % 0.0 in 0.0 W/m2
03:47 11.1 °F 3.2 °F 1016.1 in North 55.5 mph 55.5 mph 58 % 0.0 in 0.0 W/m2
03:52 11.1 °F 3.4 °F 1016.1 in North 57.4 mph 57.4 mph 59 % 0.0 in 0.0 W/m2 CLR
03:57 11.7 °F 3.9 °F 1016.1 in North 64.8 mph 64.8 mph 59 % 0.0 in 0.0 W/m2
04:02 11.1 °F 3.4 °F 1015.8 in NNE 75.9 mph 75.9 mph 59 % 0.0 in 0.0 W/m2
04:07 11.1 °F 3.4 °F 1015.8 in NNW 81.4 mph 81.4 mph 59 % 0.0 in 0.0 W/m2
04:12 11.1 °F 3.2 °F 1015.5 in NNW 68.5 mph 68.5 mph 58 % 0.0 in 0.0 W/m2
04:17 11.1 °F 3.2 °F 1015.5 in NNW 74.0 mph 74.0 mph 58 % 0.0 in 0.0 W/m2
04:20 11.1 °F 3.2 °F 1015.1 in NNW 77.7 mph 77.7 mph 58 % 0.0 in 0.0 W/m2
04:22 11.7 °F 3.4 °F 1015.1 in NNW 79.6 mph 79.6 mph 57 % 0.0 in 0.0 W/m2
04:24 11.7 °F 3.4 °F 1015.1 in NNW 79.6 mph 79.6 mph 57 % 0.0 in 0.0 W/m2
04:34 11.1 °F 3.2 °F 1015.1 in NW 77.7 mph 77.7 mph 58 % 0.0 in 0.0 W/m2
04:39 11.1 °F 3.4 °F 1015.1 in North 75.9 mph 75.9 mph 59 % 0.0 in 0.0 W/m2
04:44 11.1 °F 3.6 °F 1015.5 in North 64.8 mph 64.8 mph 60 % 0.0 in 0.0 W/m2
04:49 11.1 °F 3.6 °F 1015.5 in NNW 66.6 mph 66.6 mph 60 % 0.0 in 0.0 W/m2
04:54 11.1 °F 3.6 °F 1015.5 in NNW 75.6 mph 75.6 mph 60 % 0.0 in 0.0 W/m2
04:59 11.1 °F 3.6 °F 1015.1 in NNW 68.5 mph 68.5 mph 60 % 0.0 in 0.0 W/m2
05:04 11.1 °F 3.4 °F 1015.1 in NNW 70.3 mph 70.3 mph 59 % 0.0 in 0.0 W/m2
05:09 11.1 °F 3.4 °F 1014.8 in NNW 75.9 mph 75.9 mph 59 % 0.0 in 0.0 W/m2
05:14 11.1 °F 3.4 °F 1014.8 in NNW 78.8 mph 78.8 mph 59 % 0.0 in 0.0 W/m2
05:19 11.1 °F 3.4 °F 1014.8 in NNW 66.6 mph 66.6 mph 59 % 0.0 in 0.0 W/m2
05:25 11.1 °F 3.4 °F 1014.8 in NNW 88.8 mph 88.8 mph 59 % 0.0 in 0.0 W/m2
05:30 10.6 °F 2.9 °F 1014.8 in NNW 72.2 mph 72.2 mph 59 % 0.0 in 0.0 W/m2
05:35 10.6 °F 3.1 °F 1015.1 in NW 57.4 mph 57.4 mph 60 % 0.0 in 0.0 W/m2
05:40 10.6 °F 3.3 °F 1015.1 in North 62.9 mph 62.9 mph 61 % 0.0 in 0.0 W/m2
05:45 10.6 °F 3.3 °F 1015.1 in NW 48.3 mph 48.3 mph 61 % 0.0 in 0.0 W/m2
05:50 10.6 °F 3.6 °F 1015.5 in NNW 48.1 mph 48.1 mph 62 % 0.0 in 0.0 W/m2 CLR
05:55 10.6 °F 3.6 °F 1015.8 in NNW 53.7 mph 53.7 mph 62 % 0.0 in 0.0 W/m2
06:00 10.6 °F 3.3 °F 1015.8 in NNW 66.6 mph 66.6 mph 61 % 0.0 in 0.0 W/m2
06:05 10.6 °F 3.6 °F 1015.8 in NW 53.7 mph 53.7 mph 62 % 0.0 in 0.0 W/m2 CLR
06:10 10.6 °F 3.6 °F 1015.8 in NNW 64.4 mph 64.4 mph 62 % 0.0 in 0.0 W/m2 CLR
06:15 10.6 °F 3.6 °F 1015.8 in NNW 38.9 mph 38.9 mph 62 % 0.0 in 0.0 W/m2 CLR
06:20 10.0 °F 3.1 °F 1015.8 in NNW 59.2 mph 59.2 mph 62 % 0.0 in 0.0 W/m2 CLR
06:25 10.0 °F 3.3 °F 1016.1 in North 51.8 mph 51.8 mph 63 % 0.0 in 0.0 W/m2 CLR
06:30 10.0 °F 3.3 °F 1016.1 in NW 42.6 mph 42.6 mph 63 % 0.0 in 0.0 W/m2 CLR
06:35 10.0 °F 3.3 °F 1016.5 in NNW 62.9 mph 62.9 mph 63 % 0.0 in 0.0 W/m2
06:40 10.0 °F 3.3 °F 1016.5 in NNW 51.8 mph 51.8 mph 63 % 0.0 in 0.0 W/m2 CLR
06:45 10.0 °F 3.3 °F 1016.5 in NNW 40.7 mph 40.7 mph 63 % 0.0 in 0.0 W/m2 CLR
06:50 9.4 °F 2.9 °F 1016.5 in NNW 50.0 mph 50.0 mph 64 % 0.0 in 0.0 W/m2 CLR
06:55 9.4 °F 2.9 °F 1016.5 in NNW 48.3 mph 48.3 mph 64 % 0.0 in 0.0 W/m2 CLR
07:00 10.0 °F 3.5 °F 1016.8 in NNW 40.2 mph 40.2 mph 64 % 0.0 in 0.0 W/m2 CLR
07:05 9.4 °F 2.9 °F 1016.8 in North 48.1 mph 48.1 mph 64 % 0.0 in 0.0 W/m2 CLR
07:10 9.4 °F 2.9 °F 1016.8 in NNW 57.4 mph 57.4 mph 64 % 0.0 in 0.0 W/m2 CLR
07:15 9.4 °F 2.9 °F 1016.8 in North 40.7 mph 40.7 mph 64 % 0.0 in 0.0 W/m2 CLR
07:20 9.4 °F 2.9 °F 1016.8 in NNW 46.3 mph 46.3 mph 64 % 0.0 in 0.0 W/m2 CLR
07:25 9.4 °F 2.9 °F 1016.8 in NNW 54.7 mph 54.7 mph 64 % 0.0 in 0.0 W/m2 CLR
07:30 9.4 °F 2.9 °F 1016.8 in NNW 55.5 mph 55.5 mph 64 % 0.0 in 0.0 W/m2 CLR
07:35 9.4 °F 2.9 °F 1016.8 in NNW 55.5 mph 55.5 mph 64 % 0.0 in 0.0 W/m2 OVC
07:40 8.9 °F 2.4 °F 1016.8 in North 48.1 mph 48.1 mph 64 % 0.0 in 0.0 W/m2 OVC
07:45 8.9 °F 2.7 °F 1016.8 in North 48.3 mph 48.3 mph 65 % 0.0 in 5.0 W/m2 OVC
07:50 8.9 °F 2.9 °F 1017.2 in North 50.0 mph 50.0 mph 66 % 0.0 in 7.0 W/m2 OVC
07:55 8.9 °F 2.7 °F 1017.2 in North 44.4 mph 44.4 mph 65 % 0.0 in 9.0 W/m2 OVC
08:00 8.9 °F 2.7 °F 1017.5 in NNW 46.3 mph 46.3 mph 65 % 0.0 in 11.0 W/m2 OVC
08:05 8.9 °F 2.4 °F 1017.5 in NNW 46.3 mph 46.3 mph 64 % 0.0 in 14.0 W/m2 OVC
08:10 8.9 °F 2.4 °F 1017.5 in NNW 59.2 mph 59.2 mph 64 % 0.0 in 16.0 W/m2 OVC
08:15 8.9 °F 2.2 °F 1017.5 in North 61.1 mph 61.1 mph 63 % 0.0 in 21.0 W/m2 OVC
08:20 8.9 °F 2.2 °F 1017.8 in North 46.3 mph 46.3 mph 63 % 0.0 in 28.0 W/m2 OVC
08:25 8.9 °F 2.2 °F 1017.8 in North 46.3 mph 46.3 mph 63 % 0.0 in 42.0 W/m2 OVC
08:30 8.9 °F 2.2 °F 1017.8 in North 57.4 mph 57.4 mph 63 % 0.0 in 54.0 W/m2
08:35 8.9 °F 2.2 °F 1017.8 in NNW 51.8 mph 51.8 mph 63 % 0.0 in 65.0 W/m2 OVC
08:40 8.9 °F 2.2 °F 1017.8 in NNW 51.8 mph 51.8 mph 63 % 0.0 in 77.0 W/m2 OVC
08:45 8.9 °F 2.2 °F 1018.2 in NNW 44.4 mph 44.4 mph 63 % 0.0 in 86.0 W/m2 OVC
08:50 8.9 °F 2.0 °F 1018.5 in North 38.9 mph 38.9 mph 62 % 0.0 in 105.0 W/m2 BKN
08:55 8.9 °F 2.0 °F 1018.2 in NW 46.3 mph 46.3 mph 62 % 0.0 in 121.0 W/m2 FEW
09:00 8.9 °F 1.8 °F 1018.5 in NNW 42.6 mph 42.6 mph 61 % 0.0 in 116.0 W/m2 CLR
09:05 8.9 °F 1.8 °F 1018.5 in North 50.0 mph 50.0 mph 61 % 0.0 in 151.0 W/m2 CLR
09:10 8.9 °F 1.6 °F 1018.5 in North 57.9 mph 57.9 mph 60 % 0.0 in 169.0 W/m2 CLR
09:15 9.4 °F 1.8 °F 1018.5 in North 53.7 mph 53.7 mph 59 % 0.0 in 160.0 W/m2 CLR
09:20 9.4 °F 1.8 °F 1018.8 in NNW 46.7 mph 46.7 mph 59 % 0.0 in 127.0 W/m2 CLR
09:25 9.4 °F 1.6 °F 1018.8 in NW 42.6 mph 42.6 mph 58 % 0.0 in 199.0 W/m2 CLR
09:30 9.4 °F 1.6 °F 1018.8 in North 55.5 mph 55.5 mph 58 % 0.0 in 232.0 W/m2 CLR
09:35 9.4 °F 1.6 °F 1018.8 in NNW 50.0 mph 50.0 mph 58 % 0.0 in 246.0 W/m2 CLR
09:40 9.4 °F 1.3 °F 1018.8 in North 50.0 mph 50.0 mph 57 % 0.0 in 258.0 W/m2 CLR
09:45 9.4 °F 1.3 °F 1019.2 in NNW 51.8 mph 51.8 mph 57 % 0.0 in 271.0 W/m2 CLR
09:50 9.4 °F 1.3 °F 1019.2 in North 46.3 mph 46.3 mph 57 % 0.0 in 281.0 W/m2 CLR
09:55 9.4 °F 1.1 °F 1019.5 in North 35.2 mph 36.2 mph 56 % 0.0 in 297.0 W/m2 CLR
10:00 9.4 °F 0.8 °F 1019.5 in North 51.8 mph 51.8 mph 55 % 0.0 in 308.0 W/m2 CLR
10:05 10.0 °F 1.1 °F 1019.5 in NNW 53.7 mph 53.7 mph 54 % 0.0 in 318.0 W/m2 CLR
10:10 10.0 °F 0.8 °F 1019.5 in NNW 51.8 mph 51.8 mph 53 % 0.0 in 329.0 W/m2 CLR
10:15 10.0 °F 0.8 °F 1019.5 in NNW 42.6 mph 42.6 mph 53 % 0.0 in 341.0 W/m2 CLR
10:20 10.0 °F 0.6 °F 1019.2 in North 44.4 mph 44.4 mph 52 % 0.0 in 352.0 W/m2 CLR
10:25 10.0 °F 0.6 °F 1019.2 in NNW 38.6 mph 38.6 mph 52 % 0.0 in 360.0 W/m2 CLR
10:30 10.6 °F 0.8 °F 1019.5 in North 55.5 mph 55.5 mph 51 % 0.0 in 373.0 W/m2 CLR
10:35 10.6 °F 0.6 °F 1019.5 in North 53.7 mph 53.7 mph 50 % 0.0 in 383.0 W/m2 CLR
10:40 10.6 °F 0.6 °F 1019.5 in North 55.5 mph 55.5 mph 50 % 0.0 in 390.0 W/m2 CLR
10:45 10.6 °F 0.3 °F 1019.5 in North 50.0 mph 50.0 mph 49 % 0.0 in 399.0 W/m2 CLR
10:50 10.6 °F 0.0 °F 1019.5 in NNW 51.8 mph 51.8 mph 48 % 0.0 in 411.0 W/m2 CLR
10:55 10.6 °F 0.0 °F 1019.5 in North 44.4 mph 44.4 mph 48 % 0.0 in 420.0 W/m2 CLR
11:00 11.1 °F 0.2 °F 1019.5 in NNW 35.2 mph 35.2 mph 47 % 0.0 in 425.0 W/m2 CLR
11:05 11.1 °F 0.2 °F 1019.9 in NNE 42.6 mph 42.6 mph 47 % 0.0 in 434.0 W/m2 CLR
11:10 11.1 °F -0.1 °F 1019.9 in NNE 55.5 mph 55.5 mph 46 % 0.0 in 438.0 W/m2 CLR
11:15 11.1 °F -0.1 °F 1019.9 in North 55.5 mph 55.5 mph 46 % 0.0 in 448.0 W/m2 CLR
11:20 11.1 °F 0.2 °F 1019.9 in ESE 48.1 mph 48.1 mph 47 % 0.0 in 457.0 W/m2 CLR
11:25 11.7 °F 0.4 °F 1019.9 in NNW 59.5 mph 59.5 mph 46 % 0.0 in 462.0 W/m2 CLR
11:30 11.7 °F 0.4 °F 1020.2 in North 55.5 mph 55.5 mph 46 % 0.0 in 464.0 W/m2 CLR
11:35 11.7 °F 0.1 °F 1020.2 in North 46.3 mph 46.3 mph 45 % 0.0 in 471.0 W/m2 CLR
11:40 11.7 °F 0.4 °F 1020.2 in North 57.9 mph 57.9 mph 46 % 0.0 in 482.0 W/m2 CLR
11:45 11.7 °F 0.4 °F 1020.2 in NNW 42.6 mph 42.6 mph 46 % 0.0 in 480.0 W/m2 CLR
11:50 11.7 °F 0.4 °F 1019.9 in North 51.8 mph 51.8 mph 46 % 0.0 in 489.0 W/m2 CLR
11:55 11.7 °F 0.1 °F 1020.2 in NW 44.4 mph 44.4 mph 45 % 0.0 in 490.0 W/m2 CLR
12:00 11.7 °F -0.2 °F 1020.2 in North 54.7 mph 54.7 mph 44 % 0.0 in 496.0 W/m2 CLR
12:05 11.7 °F -0.2 °F 1020.2 in NNW 37.0 mph 37.0 mph 44 % 0.0 in 496.0 W/m2 CLR
12:15 11.7 °F -0.8 °F 1020.2 in North 42.6 mph 42.6 mph 42 % 0.0 in 504.0 W/m2 CLR
12:21 11.7 °F -0.8 °F 1020.2 in NNW 50.0 mph 50.0 mph 42 % 0.0 in 504.0 W/m2 CLR
12:26 12.2 °F -0.7 °F 1019.9 in NNW 44.4 mph 44.4 mph 41 % 0.0 in 510.0 W/m2 CLR
12:31 12.2 °F -1.0 °F 1019.9 in NNW 46.3 mph 46.3 mph 40 % 0.0 in 513.0 W/m2 CLR
12:36 12.2 °F -1.3 °F 1019.9 in NNW 44.4 mph 44.4 mph 39 % 0.0 in 508.0 W/m2 CLR
12:41 12.2 °F -1.7 °F 1019.9 in NNW 33.3 mph 33.3 mph 38 % 0.0 in 512.0 W/m2 CLR
12:46 12.2 °F -2.1 °F 1019.9 in North 35.4 mph 35.4 mph 37 % 0.0 in 513.0 W/m2 CLR
12:51 12.8 °F -2.3 °F 1019.9 in NW 43.4 mph 43.4 mph 35 % 0.0 in 512.0 W/m2 CLR
12:56 12.8 °F -2.3 °F 1020.2 in North 45.1 mph 45.1 mph 35 % 0.0 in 510.0 W/m2 CLR
13:02 12.8 °F -2.3 °F 1019.9 in NNW 44.4 mph 44.4 mph 35 % 0.0 in 510.0 W/m2 CLR
13:07 12.8 °F -2.3 °F 1019.5 in North 41.8 mph 41.8 mph 35 % 0.0 in 510.0 W/m2 CLR
13:12 12.8 °F -2.3 °F 1019.5 in NW 37.0 mph 37.0 mph 35 % 0.0 in 503.0 W/m2 CLR
13:17 12.8 °F -1.9 °F 1019.9 in NNW 42.6 mph 42.6 mph 36 % 0.0 in 503.0 W/m2 CLR
13:22 12.8 °F -1.9 °F 1019.5 in North 33.8 mph 33.8 mph 36 % 0.0 in 499.0 W/m2 CLR
13:27 12.8 °F -2.3 °F 1019.9 in North 43.4 mph 43.4 mph 35 % 0.0 in 492.0 W/m2 CLR
13:32 12.2 °F -3.2 °F 1019.5 in North 40.7 mph 40.7 mph 34 % 0.0 in 490.0 W/m2 CLR
13:37 12.8 °F -3.1 °F 1019.5 in NNW 40.7 mph 40.7 mph 33 % 0.0 in 489.0 W/m2 CLR
13:42 12.8 °F -2.7 °F 1019.5 in North 46.3 mph 46.3 mph 34 % 0.0 in 482.0 W/m2 CLR
13:47 12.8 °F -3.1 °F 1019.5 in North 48.1 mph 48.1 mph 33 % 0.0 in 480.0 W/m2 CLR
13:52 12.8 °F -3.6 °F 1019.5 in NW 42.6 mph 42.6 mph 32 % 0.0 in 475.0 W/m2 CLR
13:57 12.8 °F -3.6 °F 1019.5 in NNW 42.6 mph 42.6 mph 32 % 0.0 in 469.0 W/m2 CLR
14:02 12.8 °F -3.1 °F 1019.5 in NNW 42.6 mph 42.6 mph 33 % 0.0 in 466.0 W/m2 CLR
14:07 13.3 °F -2.2 °F 1019.2 in North 33.8 mph 33.8 mph 34 % 0.0 in 461.0 W/m2 CLR
14:12 13.3 °F -3.1 °F 1019.2 in North 37.0 mph 37.0 mph 32 % 0.0 in 454.0 W/m2 CLR
14:17 12.8 °F -2.7 °F 1019.2 in NW 42.6 mph 42.6 mph 34 % 0.0 in 443.0 W/m2 CLR
14:22 12.8 °F -2.3 °F 1019.2 in NW 40.7 mph 40.7 mph 35 % 0.0 in 439.0 W/m2 CLR
14:27 12.8 °F -3.6 °F 1019.2 in North 48.3 mph 48.3 mph 32 % 0.0 in 432.0 W/m2 CLR
14:32 12.8 °F -3.9 °F 1019.2 in North 42.6 mph 42.6 mph 31 % 0.0 in 422.0 W/m2 CLR
14:37 12.8 °F -3.6 °F 1019.2 in NNW 30.6 mph 30.6 mph 32 % 0.0 in 415.0 W/m2 CLR
14:42 12.8 °F -3.9 °F 1019.2 in North 42.6 mph 42.6 mph 31 % 0.0 in 406.0 W/m2 CLR
14:47 12.8 °F -4.4 °F 1019.2 in NNW 48.1 mph 48.1 mph 30 % 0.0 in 396.0 W/m2 CLR
14:52 12.8 °F -4.4 °F 1019.2 in North 37.0 mph 37.0 mph 30 % 0.0 in 388.0 W/m2 CLR
14:57 12.8 °F -4.4 °F 1019.2 in North 42.6 mph 42.6 mph 30 % 0.0 in 381.0 W/m2 CLR
15:02 12.8 °F -3.9 °F 1019.2 in North 33.3 mph 33.3 mph 31 % 0.0 in 369.0 W/m2 CLR
15:07 12.8 °F -3.9 °F 1019.5 in NW 46.3 mph 46.3 mph 31 % 0.0 in 359.0 W/m2 CLR
15:12 12.8 °F -3.9 °F 1019.5 in North 38.9 mph 38.9 mph 31 % 0.0 in 348.0 W/m2 CLR
15:17 12.8 °F -3.9 °F 1019.5 in North 38.9 mph 38.9 mph 31 % 0.0 in 338.0 W/m2 CLR
15:22 12.8 °F -3.6 °F 1019.5 in NNW 44.4 mph 44.4 mph 32 % 0.0 in 325.0 W/m2 CLR
15:27 12.8 °F -3.6 °F 1019.5 in NNW 43.4 mph 43.4 mph 32 % 0.0 in 313.0 W/m2 CLR
15:32 12.2 °F -4.0 °F 1019.5 in NNW 31.5 mph 31.5 mph 32 % 0.0 in 304.0 W/m2 CLR
15:37 12.2 °F -3.6 °F 1019.5 in NNW 35.2 mph 35.2 mph 33 % 0.0 in 292.0 W/m2 CLR
15:42 12.2 °F -3.6 °F 1019.5 in NW 40.7 mph 40.7 mph 33 % 0.0 in 279.0 W/m2 CLR
15:47 12.2 °F -3.6 °F 1019.5 in NNW 35.2 mph 35.2 mph 33 % 0.0 in 265.0 W/m2 CLR
15:52 12.2 °F -3.6 °F 1019.9 in NNW 31.5 mph 31.5 mph 33 % 0.0 in 251.0 W/m2 CLR
15:57 12.2 °F -3.6 °F 1019.9 in NNW 35.2 mph 35.2 mph 33 % 0.0 in 236.0 W/m2 CLR
16:02 11.7 °F -3.7 °F 1019.9 in NW 46.3 mph 46.3 mph 34 % 0.0 in 223.0 W/m2 CLR
16:07 11.7 °F -4.1 °F 1019.9 in NNW 42.6 mph 42.6 mph 33 % 0.0 in 207.0 W/m2 CLR
16:13 11.7 °F -4.1 °F 1019.9 in North 37.0 mph 37.0 mph 33 % 0.0 in 190.0 W/m2 CLR
16:18 11.7 °F -4.1 °F 1019.9 in North 29.6 mph 29.6 mph 33 % 0.0 in 174.0 W/m2 CLR
16:23 11.1 °F -4.6 °F 1019.9 in NW 35.2 mph 35.2 mph 33 % 0.0 in 158.0 W/m2 CLR
16:28 11.1 °F -4.6 °F 1019.9 in NNW 35.4 mph 35.4 mph 33 % 0.0 in 144.0 W/m2 CLR
16:33 11.1 °F -4.6 °F 1019.9 in NW 38.9 mph 38.9 mph 33 % 0.0 in 128.0 W/m2 CLR
16:38 11.1 °F -4.2 °F 1019.9 in NW 40.7 mph 40.7 mph 34 % 0.0 in 113.0 W/m2 CLR
16:43 10.6 °F -4.7 °F 1019.9 in NNW 33.8 mph 33.8 mph 34 % 0.0 in 98.0 W/m2 CLR
16:48 10.6 °F -4.7 °F 1020.2 in NNW 48.1 mph 48.1 mph 34 % 0.0 in 84.0 W/m2 FEW
16:53 10.6 °F -4.7 °F 1020.2 in NNW 35.4 mph 35.4 mph 34 % 0.0 in 72.0 W/m2 FEW
16:58 10.6 °F -4.3 °F 1020.2 in North 31.5 mph 31.5 mph 35 % 0.0 in 58.0 W/m2 SCT
17:03 10.6 °F -4.3 °F 1020.2 in NW 38.9 mph 38.9 mph 35 % 0.0 in 42.0 W/m2 SCT
17:08 10.0 °F -4.4 °F 1020.5 in NNW 50.0 mph 50.0 mph 36 % 0.0 in 35.0 W/m2 BKN
17:13 10.0 °F -4.1 °F 1020.5 in NNW 42.6 mph 42.6 mph 37 % 0.0 in 26.0 W/m2 BKN
17:18 10.0 °F -4.1 °F 1020.5 in NNW 31.5 mph 31.5 mph 37 % 0.0 in 19.0 W/m2 BKN
17:23 9.4 °F -4.2 °F 1020.5 in North 42.6 mph 42.6 mph 38 % 0.0 in 14.0 W/m2 BKN
17:28 9.4 °F -4.2 °F 1020.2 in NNW 35.4 mph 35.4 mph 38 % 0.0 in 12.0 W/m2 BKN
17:33 9.4 °F -3.8 °F 1020.2 in NNW 38.9 mph 38.9 mph 39 % 0.0 in 9.0 W/m2 BKN
17:38 9.4 °F -3.8 °F 1020.2 in NNW 40.7 mph 40.7 mph 39 % 0.0 in 7.0 W/m2 BKN
17:43 9.4 °F -3.5 °F 1020.5 in NNW 43.4 mph 43.4 mph 40 % 0.0 in 5.0 W/m2 OVC
17:48 9.4 °F -3.2 °F 1020.5 in NW 35.2 mph 35.2 mph 41 % 0.0 in 0.0 W/m2 OVC
17:53 8.9 °F -3.7 °F 1020.9 in NW 29.6 mph 29.6 mph 41 % 0.0 in 0.0 W/m2 OVC
17:58 8.9 °F -3.7 °F 1020.9 in NW 42.6 mph 42.6 mph 41 % 0.0 in 0.0 W/m2 CLR
18:03 8.9 °F -3.3 °F 1020.9 in NNW 40.7 mph 40.7 mph 42 % 0.0 in 0.0 W/m2 CLR
18:08 8.9 °F -3.3 °F 1020.9 in North 41.8 mph 41.8 mph 42 % 0.0 in 0.0 W/m2 CLR
18:13 8.9 °F -3.3 °F 1021.2 in NW 33.3 mph 33.3 mph 42 % 0.0 in 0.0 W/m2 CLR
18:18 8.9 °F -3.3 °F 1021.2 in NW 29.6 mph 29.6 mph 42 % 0.0 in 0.0 W/m2 CLR
18:23 8.3 °F -3.6 °F 1021.2 in NW 40.7 mph 40.7 mph 43 % 0.0 in 0.0 W/m2 CLR
18:28 8.3 °F -3.6 °F 1021.6 in NNW 40.7 mph 40.7 mph 43 % 0.0 in 0.0 W/m2 CLR
18:33 8.3 °F -3.6 °F 1021.6 in NNW 31.5 mph 31.5 mph 43 % 0.0 in 0.0 W/m2 CLR
18:38 8.3 °F -3.2 °F 1021.6 in WNW 31.5 mph 31.5 mph 44 % 0.0 in 0.0 W/m2 CLR
18:39 8.3 °F -2.9 °F 1021.6 in NW 35.2 mph 35.2 mph 45 % 0.0 in 0.0 W/m2 CLR
18:44 8.3 °F -2.3 °F 1021.6 in NW 37.0 mph 37.0 mph 47 % 0.0 in 0.0 W/m2 CLR
18:49 8.3 °F -2.1 °F 1021.6 in NW 31.5 mph 31.5 mph 48 % 0.0 in 0.0 W/m2 CLR
18:54 8.3 °F -2.1 °F 1021.6 in NW 42.6 mph 42.6 mph 48 % 0.0 in 0.0 W/m2 CLR
18:59 8.3 °F -1.8 °F 1021.6 in NW 31.5 mph 31.5 mph 49 % 0.0 in 0.0 W/m2 CLR
19:04 7.8 °F -2.3 °F 1021.9 in NW 31.5 mph 31.5 mph 49 % 0.0 in 0.0 W/m2 CLR
19:09 7.8 °F -2.3 °F 1021.9 in NW 37.0 mph 37.0 mph 49 % 0.0 in 0.0 W/m2 CLR
19:14 7.8 °F -2.3 °F 1021.9 in NW 37.0 mph 37.0 mph 49 % 0.0 in 0.0 W/m2 CLR
19:19 7.8 °F -2.3 °F 1021.9 in NW 40.7 mph 40.7 mph 49 % 0.0 in 0.0 W/m2 CLR
19:24 7.8 °F -2.0 °F 1021.9 in WNW 37.0 mph 37.0 mph 50 % 0.0 in 0.0 W/m2 CLR
19:29 7.8 °F -2.0 °F 1022.2 in NW 31.5 mph 31.5 mph 50 % 0.0 in 0.0 W/m2 CLR
19:34 7.8 °F -1.7 °F 1022.2 in WNW 35.2 mph 35.2 mph 51 % 0.0 in 0.0 W/m2 CLR
19:39 7.2 °F -2.3 °F 1022.2 in WNW 31.5 mph 31.5 mph 51 % 0.0 in 0.0 W/m2 CLR
19:44 7.2 °F -2.3 °F 1022.2 in NW 35.4 mph 35.4 mph 51 % 0.0 in 0.0 W/m2 CLR
19:49 7.2 °F -2.0 °F 1022.2 in NW 40.7 mph 40.7 mph 52 % 0.0 in 0.0 W/m2 CLR
19:54 7.2 °F -2.0 °F 1022.2 in NW 29.6 mph 29.6 mph 52 % 0.0 in 0.0 W/m2 CLR
19:59 7.2 °F -1.7 °F 1022.2 in NW 37.0 mph 37.0 mph 53 % 0.0 in 0.0 W/m2 CLR
20:04 7.2 °F -1.7 °F 1022.2 in NNW 31.5 mph 31.5 mph 53 % 0.0 in 0.0 W/m2 CLR
20:09 7.2 °F -1.7 °F 1022.2 in NNW 37.0 mph 37.0 mph 53 % 0.0 in 0.0 W/m2 CLR
20:14 6.7 °F -2.0 °F 1022.2 in NW 29.6 mph 29.6 mph 54 % 0.0 in 0.0 W/m2 CLR
20:19 6.7 °F -2.0 °F 1021.9 in NW 37.0 mph 37.0 mph 54 % 0.0 in 0.0 W/m2 CLR
20:24 6.7 °F -1.7 °F 1021.9 in NW 40.7 mph 40.7 mph 55 % 0.0 in 0.0 W/m2 CLR
20:29 6.7 °F -1.7 °F 1021.9 in NNW 38.9 mph 38.9 mph 55 % 0.0 in 0.0 W/m2 CLR
20:34 6.7 °F -1.7 °F 1021.9 in NW 33.3 mph 33.3 mph 55 % 0.0 in 0.0 W/m2 CLR
20:39 6.7 °F -1.7 °F 1021.6 in NNW 55.5 mph 55.5 mph 55 % 0.0 in 0.0 W/m2 CLR
20:44 6.7 °F -1.7 °F 1021.6 in NW 38.6 mph 38.6 mph 55 % 0.0 in 0.0 W/m2 CLR
20:49 6.7 °F -1.7 °F 1021.6 in NW 37.0 mph 37.0 mph 55 % 0.0 in 0.0 W/m2 CLR
20:50 6.7 °F -1.7 °F 1021.6 in NW 37.0 mph 37.0 mph 55 % 0.0 in 0.0 W/m2 CLR
20:55 6.7 °F -1.7 °F 1021.6 in NNW 44.4 mph 44.4 mph 55 % 0.0 in 0.0 W/m2 CLR
21:00 6.7 °F -1.5 °F 1021.6 in NW 31.5 mph 31.5 mph 56 % 0.0 in 0.0 W/m2 CLR
21:05 6.7 °F -1.5 °F 1021.6 in WNW 31.5 mph 31.5 mph 56 % 0.0 in 0.0 W/m2 CLR
21:10 6.7 °F -1.3 °F 1021.6 in WNW 38.9 mph 38.9 mph 57 % 0.0 in 0.0 W/m2 CLR
21:15 6.7 °F -1.0 °F 1021.2 in NW 50.0 mph 50.0 mph 58 % 0.0 in 0.0 W/m2 CLR
21:20 6.7 °F -1.0 °F 1021.6 in NW 35.2 mph 35.2 mph 58 % 0.0 in 0.0 W/m2 CLR
21:25 6.7 °F -0.8 °F 1021.6 in NW 40.7 mph 40.7 mph 59 % 0.0 in 0.0 W/m2 CLR
21:30 6.7 °F -0.8 °F 1021.6 in NW 35.2 mph 35.2 mph 59 % 0.0 in 0.0 W/m2 CLR
21:35 6.7 °F -0.6 °F 1021.6 in NW 40.2 mph 40.2 mph 60 % 0.0 in 0.0 W/m2 CLR
21:40 6.1 °F -1.1 °F 1021.6 in NNW 35.2 mph 35.2 mph 60 % 0.0 in 0.0 W/m2 CLR
21:45 6.1 °F -0.8 °F 1021.6 in NW 40.7 mph 40.7 mph 61 % 0.0 in 0.0 W/m2 CLR
21:50 6.1 °F -0.8 °F 1021.9 in NW 31.5 mph 31.5 mph 61 % 0.0 in 0.0 W/m2 CLR
21:55 6.1 °F -0.8 °F 1021.9 in NNW 32.2 mph 32.2 mph 61 % 0.0 in 0.0 W/m2 CLR
22:00 6.1 °F -0.8 °F 1021.9 in WNW 38.6 mph 38.6 mph 61 % 0.0 in 0.0 W/m2 CLR
22:05 6.1 °F -0.6 °F 1021.9 in NW 33.3 mph 33.3 mph 62 % 0.0 in 0.0 W/m2 CLR
22:10 6.1 °F -0.6 °F 1021.9 in North 25.7 mph 25.7 mph 62 % 0.0 in 0.0 W/m2 CLR
22:15 6.1 °F -0.6 °F 1021.9 in NW 29.6 mph 29.6 mph 62 % 0.0 in 0.0 W/m2 CLR
22:20 6.1 °F -0.6 °F 1022.2 in NW 31.5 mph 31.5 mph 62 % 0.0 in 0.0 W/m2 CLR
22:25 6.1 °F -0.4 °F 1022.2 in NNW 24.1 mph 24.1 mph 63 % 0.0 in 0.0 W/m2 CLR
22:30 6.1 °F -0.4 °F 1022.2 in NNW 31.5 mph 31.5 mph 63 % 0.0 in 0.0 W/m2 CLR
22:35 6.1 °F -0.4 °F 1022.2 in WNW 24.1 mph 24.1 mph 63 % 0.0 in 0.0 W/m2 CLR
22:40 6.1 °F -0.4 °F 1022.6 in NW 29.6 mph 29.6 mph 63 % 0.0 in 0.0 W/m2 CLR
22:45 6.1 °F -0.4 °F 1022.6 in NW 18.5 mph 18.5 mph 63 % 0.0 in 0.0 W/m2 CLR
22:50 6.1 °F -0.4 °F 1022.6 in WNW 22.2 mph 22.2 mph 63 % 0.0 in 0.0 W/m2 CLR
22:51 6.1 °F -0.4 °F 1022.6 in WNW 22.2 mph 22.2 mph 63 % 0.0 in 0.0 W/m2 CLR
22:56 6.1 °F -0.4 °F 1022.2 in WNW 18.5 mph 18.5 mph 63 % 0.0 in 0.0 W/m2 CLR
23:01 6.1 °F -0.4 °F 1022.6 in WNW 29.6 mph 29.6 mph 63 % 0.0 in 0.0 W/m2 CLR
23:06 6.1 °F -0.4 °F 1022.6 in NW 25.9 mph 25.9 mph 63 % 0.0 in 0.0 W/m2 CLR
23:11 6.1 °F -0.4 °F 1022.6 in NW 18.5 mph 18.5 mph 63 % 0.0 in 0.0 W/m2 CLR
23:16 6.1 °F -0.4 °F 1022.6 in WNW 29.6 mph 29.6 mph 63 % 0.0 in 0.0 W/m2 CLR
23:21 6.1 °F -0.4 °F 1022.6 in NW 31.5 mph 31.5 mph 63 % 0.0 in 0.0 W/m2 CLR
23:26 6.1 °F -0.4 °F 1022.6 in NW 20.4 mph 20.4 mph 63 % 0.0 in 0.0 W/m2 CLR
23:31 6.1 °F -0.4 °F 1022.2 in NW 22.2 mph 22.2 mph 63 % 0.0 in 0.0 W/m2 CLR
23:36 6.1 °F -0.4 °F 1022.6 in WNW 30.6 mph 30.6 mph 63 % 0.0 in 0.0 W/m2 CLR
23:41 6.1 °F -0.4 °F 1022.6 in NW 25.9 mph 25.9 mph 63 % 0.0 in 0.0 W/m2 CLR
23:46 6.1 °F -0.4 °F 1022.6 in NW 32.2 mph 32.2 mph 63 % 0.0 in 0.0 W/m2 CLR
23:51 6.1 °F -0.4 °F 1022.6 in NW 27.8 mph 27.8 mph 63 % 0.0 in 0.0 W/m2 CLR
23:56 6.1 °F -0.4 °F 1022.6 in NW 27.8 mph 27.8 mph 63 % 0.0 in 0.0 W/m2 CLR
Lo Temps de Massalio
Compliments of Weather Underground - 1.25 mb